Time;durP1;ratioP1;P1;durP2;ratioP2;P2;SDS_P1;SDS_P2;PMS_P1;PMS_P2;Temp;Humidity;BMP_temperature;BMP_pressure;BME280_temperature;BME280_humidity;BME280_pressure;Samples;Min_cycle;Max_cycle;Signal;HPM_P1;HPM_P2
2023/11/23 00:00:13;;;;;;;9.03;5.10;;;;;;;;;;4322709;33;317878;-93
2023/11/23 00:02:42;;;;;;;8.90;5.10;;;;;;;;;;4313381;33;317124;-87
2023/11/23 00:05:11;;;;;;;11.57;5.93;;;;;;;;;;4325438;33;317279;-93
2023/11/23 00:07:39;;;;;;;8.20;4.60;;;;;;;;;;4314403;33;318079;-90
2023/11/23 00:10:10;;;;;;;7.20;4.43;;;;;;;;;;4325024;33;316918;-85
2023/11/23 00:12:41;;;;;;;8.53;5.10;;;;;;;;;;4325588;33;316522;-89
2023/11/23 00:15:21;;;;;;;6.23;4.57;;;;;;;;;;4312829;32;386773;-87
2023/11/23 00:17:48;;;;;;;8.37;5.30;;;;;;;;;;4307291;33;317166;-86
2023/11/23 00:20:16;;;;;;;7.37;4.70;;;;;;;;;;4323763;33;317285;-86
2023/11/23 00:22:43;;;;;;;13.63;5.17;;;;;;;;;;4317165;33;316915;-86
2023/11/23 00:25:14;;;;;;;13.87;5.53;;;;;;;;;;4328650;33;318083;-87
2023/11/23 00:27:49;;;;;;;8.30;5.10;;;;;;;;;;4315119;33;317546;-88
2023/11/23 00:30:25;;;;;;;9.83;5.20;;;;;;;;;;4324147;33;317414;-87
2023/11/23 00:32:54;;;;;;;7.70;5.27;;;;;;;;;;4316021;32;316924;-86
2023/11/23 00:35:25;;;;;;;11.80;5.23;;;;;;;;;;4337917;33;316869;-88
2023/11/23 00:37:54;;;;;;;8.57;4.93;;;;;;;;;;4328482;32;317586;-87
2023/11/23 00:40:23;;;;;;;7.97;4.40;;;;;;;;;;4326202;33;316439;-86
2023/11/23 00:42:51;;;;;;;8.83;4.97;;;;;;;;;;4315437;33;317422;-88
2023/11/23 00:45:20;;;;;;;5.50;4.40;;;;;;;;;;4327489;33;317109;-86
2023/11/23 00:47:48;;;;;;;7.23;5.03;;;;;;;;;;4312394;32;317446;-86
2023/11/23 00:50:15;;;;;;;7.93;4.83;;;;;;;;;;4324399;33;316867;-86
2023/11/23 00:52:43;;;;;;;8.37;5.10;;;;;;;;;;4309477;32;317269;-85
2023/11/23 00:55:10;;;;;;;8.43;4.77;;;;;;;;;;4324412;33;317288;-86
2023/11/23 00:57:38;;;;;;;9.13;4.83;;;;;;;;;;4313969;33;317393;-89
2023/11/23 01:00:08;;;;;;;8.30;5.30;;;;;;;;;;4323219;33;317213;-88
2023/11/23 01:02:38;;;;;;;6.13;5.00;;;;;;;;;;4323001;33;317142;-85
2023/11/23 01:05:06;;;;;;;8.87;4.93;;;;;;;;;;4311494;33;415854;-85
2023/11/23 01:07:34;;;;;;;7.87;4.93;;;;;;;;;;4325091;33;316933;-85
2023/11/23 01:10:01;;;;;;;9.70;6.30;;;;;;;;;;4312967;33;316926;-85
2023/11/23 01:12:29;;;;;;;6.40;5.70;;;;;;;;;;4325600;32;317100;-87
2023/11/23 01:14:56;;;;;;;10.87;7.50;;;;;;;;;;4315543;32;316883;-85
2023/11/23 01:17:24;;;;;;;12.33;7.13;;;;;;;;;;4326316;32;348271;-87
2023/11/23 01:19:53;;;;;;;10.37;6.90;;;;;;;;;;4317506;32;317736;-87
2023/11/23 01:22:20;;;;;;;5.93;4.97;;;;;;;;;;4326997;32;318392;-86
2023/11/23 01:24:48;;;;;;;9.40;5.50;;;;;;;;;;4315581;32;316751;-86
2023/11/23 01:27:15;;;;;;;8.87;5.53;;;;;;;;;;4327069;33;316980;-86
2023/11/23 01:29:43;;;;;;;12.70;6.63;;;;;;;;;;4314097;32;317378;-85
2023/11/23 01:32:11;;;;;;;13.50;7.87;;;;;;;;;;4325707;32;317599;-90
2023/11/23 01:34:38;;;;;;;14.73;8.90;;;;;;;;;;4317108;32;318217;-86
2023/11/23 01:37:08;;;;;;;12.97;8.17;;;;;;;;;;4325901;33;318326;-92
2023/11/23 01:39:35;;;;;;;11.20;6.87;;;;;;;;;;4326877;32;317796;-86
2023/11/23 01:42:03;;;;;;;10.97;6.93;;;;;;;;;;4315997;32;329568;-88
2023/11/23 01:44:30;;;;;;;10.20;5.77;;;;;;;;;;4327154;32;318081;-88
2023/11/23 01:46:58;;;;;;;9.23;6.00;;;;;;;;;;4315669;32;318187;-86
2023/11/23 01:49:27;;;;;;;10.77;5.67;;;;;;;;;;4327646;32;317199;-86
2023/11/23 01:51:55;;;;;;;8.17;4.93;;;;;;;;;;4315886;33;318397;-85
2023/11/23 01:54:24;;;;;;;7.57;5.17;;;;;;;;;;4326159;32;317050;-90
2023/11/23 01:56:53;;;;;;;7.53;5.10;;;;;;;;;;4316440;33;316905;-91
2023/11/23 01:59:22;;;;;;;7.53;5.37;;;;;;;;;;4326383;32;329016;-91
2023/11/23 02:01:51;;;;;;;7.90;5.30;;;;;;;;;;4316652;32;316737;-93
2023/11/23 02:04:18;;;;;;;7.70;5.20;;;;;;;;;;4327707;32;317631;-87
2023/11/23 02:06:46;;;;;;;10.60;5.77;;;;;;;;;;4316221;33;316739;-88
2023/11/23 02:09:14;;;;;;;10.17;5.00;;;;;;;;;;4328103;33;317585;-87
2023/11/23 02:11:44;;;;;;;6.80;4.17;;;;;;;;;;4316331;33;317607;-87
2023/11/23 02:14:12;;;;;;;6.77;4.90;;;;;;;;;;4326967;32;316822;-90
2023/11/23 02:16:40;;;;;;;6.00;4.67;;;;;;;;;;4314702;32;316649;-86
2023/11/23 02:19:07;;;;;;;10.40;5.40;;;;;;;;;;4326970;33;316579;-91
2023/11/23 02:21:35;;;;;;;6.50;4.47;;;;;;;;;;4325075;33;340319;-89
2023/11/23 02:24:09;;;;;;;8.03;4.73;;;;;;;;;;4315822;33;316864;-94
2023/11/23 02:26:37;;;;;;;6.87;5.00;;;;;;;;;;4326802;33;316775;-91
2023/11/23 02:29:05;;;;;;;6.37;3.97;;;;;;;;;;4314158;32;415921;-91
2023/11/23 02:31:33;;;;;;;8.37;4.80;;;;;;;;;;4327563;33;316466;-87
2023/11/23 02:34:01;;;;;;;5.53;3.97;;;;;;;;;;4318015;33;316946;-86
2023/11/23 02:36:28;;;;;;;3.10;2.77;;;;;;;;;;4327485;33;316801;-89
2023/11/23 02:38:56;;;;;;;9.77;3.70;;;;;;;;;;4315562;32;316731;-86
2023/11/23 02:41:25;;;;;;;6.80;4.43;;;;;;;;;;4332886;33;316868;-86
2023/11/23 02:43:53;;;;;;;5.13;3.87;;;;;;;;;;4324923;32;316838;-85
2023/11/23 02:46:23;;;;;;;6.10;4.20;;;;;;;;;;4335318;32;316527;-85
2023/11/23 02:48:53;;;;;;;7.37;4.27;;;;;;;;;;4328803;32;315665;-93
2023/11/23 02:51:21;;;;;;;6.90;4.10;;;;;;;;;;4341703;32;316539;-93
2023/11/23 02:53:51;;;;;;;5.97;4.63;;;;;;;;;;4321974;32;316877;-92
2023/11/23 02:56:23;;;;;;;4.93;3.87;;;;;;;;;;4324518;33;317130;-92
2023/11/23 02:58:53;;;;;;;6.37;4.57;;;;;;;;;;4316093;32;317047;-92
2023/11/23 03:01:22;;;;;;;5.17;3.77;;;;;;;;;;4326739;33;316913;-93
2023/11/23 03:03:50;;;;;;;5.17;3.73;;;;;;;;;;4313896;32;317240;-90
2023/11/23 03:06:18;;;;;;;5.93;4.83;;;;;;;;;;4325879;33;316837;-92
2023/11/23 03:08:45;;;;;;;6.07;4.23;;;;;;;;;;4313627;32;317025;-93
2023/11/23 03:11:20;;;;;;;7.60;5.40;;;;;;;;;;4326922;33;316594;-91
2023/11/23 03:13:48;;;;;;;6.10;4.03;;;;;;;;;;4316321;32;316752;-93
2023/11/23 03:16:17;;;;;;;6.00;4.10;;;;;;;;;;4326395;33;316783;-91
2023/11/23 03:18:45;;;;;;;7.20;5.27;;;;;;;;;;4315625;33;316797;-92
2023/11/23 03:21:12;;;;;;;8.33;4.90;;;;;;;;;;4325279;33;316767;-91
2023/11/23 03:23:42;;;;;;;9.27;4.10;;;;;;;;;;4316647;32;317415;-90
2023/11/23 03:26:09;;;;;;;7.37;3.90;;;;;;;;;;4326877;33;315570;-88
2023/11/23 03:28:37;;;;;;;4.80;3.50;;;;;;;;;;4325690;33;316551;-92
2023/11/23 03:31:06;;;;;;;9.73;3.70;;;;;;;;;;4314206;32;417148;-92
2023/11/23 03:33:35;;;;;;;5.10;3.43;;;;;;;;;;4326037;33;316605;-92
2023/11/23 03:36:02;;;;;;;3.97;3.40;;;;;;;;;;4316448;33;316474;-92
2023/11/23 03:38:29;;;;;;;4.87;3.67;;;;;;;;;;4326318;32;317126;-92
2023/11/23 03:40:58;;;;;;;9.27;3.90;;;;;;;;;;4313762;32;317063;-90
2023/11/23 03:43:26;;;;;;;5.40;3.53;;;;;;;;;;4325935;32;317009;-89
2023/11/23 03:45:54;;;;;;;6.83;3.07;;;;;;;;;;4315469;33;316557;-92
2023/11/23 03:48:22;;;;;;;6.00;3.60;;;;;;;;;;4326084;32;316721;-87
2023/11/23 03:50:51;;;;;;;4.17;2.97;;;;;;;;;;4314432;33;317130;-89
2023/11/23 03:53:18;;;;;;;4.67;3.40;;;;;;;;;;4323532;32;316823;-89
2023/11/23 03:55:47;;;;;;;4.57;3.50;;;;;;;;;;4313263;32;316769;-88
2023/11/23 03:58:15;;;;;;;5.50;3.90;;;;;;;;;;4325312;33;316726;-90
2023/11/23 04:00:42;;;;;;;11.47;8.97;;;;;;;;;;4314669;33;316926;-91
2023/11/23 04:03:10;;;;;;;14.53;11.67;;;;;;;;;;4325604;32;330560;-91
2023/11/23 04:05:38;;;;;;;17.33;12.23;;;;;;;;;;4324354;32;318761;-87
2023/11/23 04:08:07;;;;;;;11.77;8.30;;;;;;;;;;4310763;32;419252;-88
2023/11/23 04:10:35;;;;;;;9.20;6.43;;;;;;;;;;4326336;33;317751;-88
2023/11/23 04:13:03;;;;;;;6.93;4.83;;;;;;;;;;4312681;32;328751;-87
2023/11/23 04:15:31;;;;;;;9.33;5.37;;;;;;;;;;4325976;33;316629;-88
2023/11/23 04:17:58;;;;;;;7.13;4.63;;;;;;;;;;4309095;32;316679;-87
2023/11/23 04:20:26;;;;;;;8.47;4.33;;;;;;;;;;4334312;32;316607;-87
2023/11/23 04:22:53;;;;;;;7.33;4.53;;;;;;;;;;4314894;32;316907;-88
2023/11/23 04:25:22;;;;;;;5.13;3.80;;;;;;;;;;4325215;33;317021;-86
2023/11/23 04:27:50;;;;;;;4.97;3.23;;;;;;;;;;4312396;32;317482;-88
2023/11/23 04:30:17;;;;;;;5.07;3.97;;;;;;;;;;4326006;33;316497;-87
2023/11/23 04:32:45;;;;;;;7.27;4.50;;;;;;;;;;4314369;33;316790;-87
2023/11/23 04:35:12;;;;;;;4.93;3.80;;;;;;;;;;4325883;33;316669;-87
2023/11/23 04:37:40;;;;;;;8.07;3.73;;;;;;;;;;4314691;33;316639;-87
2023/11/23 04:40:10;;;;;;;9.73;4.40;;;;;;;;;;4326196;33;316746;-87
2023/11/23 04:42:40;;;;;;;5.77;3.60;;;;;;;;;;4315335;32;316935;-87
2023/11/23 04:45:08;;;;;;;7.93;4.93;;;;;;;;;;4326405;33;317139;-87
2023/11/23 04:47:36;;;;;;;5.67;3.90;;;;;;;;;;4318401;32;316997;-87
2023/11/23 04:50:04;;;;;;;8.00;3.97;;;;;;;;;;4329330;32;316545;-87
2023/11/23 04:52:32;;;;;;;5.80;4.13;;;;;;;;;;4319000;32;316623;-87
2023/11/23 04:54:59;;;;;;;6.40;4.10;;;;;;;;;;4328336;33;316839;-87
2023/11/23 04:57:26;;;;;;;5.40;4.10;;;;;;;;;;4328426;32;316552;-87
2023/11/23 04:59:55;;;;;;;11.50;4.63;;;;;;;;;;4319107;33;316769;-86
2023/11/23 05:02:23;;;;;;;8.63;4.23;;;;;;;;;;4328792;32;317924;-87
2023/11/23 05:04:51;;;;;;;10.43;5.50;;;;;;;;;;4318646;32;317030;-92
2023/11/23 05:07:19;;;;;;;7.67;5.27;;;;;;;;;;4328458;33;317798;-92
2023/11/23 05:09:46;;;;;;;10.13;6.73;;;;;;;;;;4316668;32;317091;-86
2023/11/23 05:12:17;;;;;;;20.07;10.03;;;;;;;;;;4328114;32;317942;-86
2023/11/23 05:14:44;;;;;;;28.33;15.63;;;;;;;;;;4317742;32;318941;-86
2023/11/23 05:17:13;;;;;;;30.67;19.07;;;;;;;;;;4327030;33;318846;-87
2023/11/23 05:19:41;;;;;;;30.70;16.70;;;;;;;;;;4318304;32;330848;-86
2023/11/23 05:22:08;;;;;;;23.57;13.23;;;;;;;;;;4328507;33;318996;-87
2023/11/23 05:24:36;;;;;;;16.87;10.60;;;;;;;;;;4317222;32;318853;-87
2023/11/23 05:27:03;;;;;;;12.63;9.67;;;;;;;;;;4326342;32;318845;-86
2023/11/23 05:29:31;;;;;;;16.77;10.27;;;;;;;;;;4317081;32;318162;-88
2023/11/23 05:31:58;;;;;;;9.57;7.30;;;;;;;;;;4326817;32;318865;-86
2023/11/23 05:34:27;;;;;;;7.67;5.43;;;;;;;;;;4325942;32;316805;-85
2023/11/23 05:36:54;;;;;;;7.97;6.07;;;;;;;;;;4315040;32;415954;-86
2023/11/23 05:39:22;;;;;;;9.43;7.87;;;;;;;;;;4328878;33;316799;-85
2023/11/23 05:41:50;;;;;;;10.87;6.80;;;;;;;;;;4318529;32;316971;-85
2023/11/23 05:44:18;;;;;;;9.20;6.53;;;;;;;;;;4326918;32;338380;-87
2023/11/23 05:46:47;;;;;;;13.37;7.33;;;;;;;;;;4314996;32;316653;-86
2023/11/23 05:49:14;;;;;;;12.93;7.23;;;;;;;;;;4327285;32;317864;-87
2023/11/23 05:51:44;;;;;;;19.47;10.60;;;;;;;;;;4316779;32;317743;-86
2023/11/23 05:54:11;;;;;;;23.30;13.00;;;;;;;;;;4327072;33;319094;-86
2023/11/23 05:56:40;;;;;;;30.43;14.23;;;;;;;;;;4316263;33;318815;-87
2023/11/23 05:59:08;;;;;;;34.27;14.63;;;;;;;;;;4327217;32;318867;-86
2023/11/23 06:01:35;;;;;;;23.00;14.17;;;;;;;;;;4317550;33;318761;-86
2023/11/23 06:04:03;;;;;;;38.87;19.60;;;;;;;;;;4326798;32;318902;-85
2023/11/23 06:06:30;;;;;;;40.70;23.00;;;;;;;;;;4315791;32;318756;-86
2023/11/23 06:08:59;;;;;;;39.23;23.73;;;;;;;;;;4327751;32;318792;-85
2023/11/23 06:11:27;;;;;;;37.60;20.93;;;;;;;;;;4327670;32;318649;-85
2023/11/23 06:13:55;;;;;;;32.40;17.00;;;;;;;;;;4313841;32;418280;-85
2023/11/23 06:16:22;;;;;;;19.17;11.50;;;;;;;;;;4327457;32;319090;-86
2023/11/23 06:18:50;;;;;;;13.07;9.63;;;;;;;;;;4315663;32;357833;-86
2023/11/23 06:21:18;;;;;;;18.90;9.97;;;;;;;;;;4327201;32;317676;-86
2023/11/23 06:23:47;;;;;;;16.23;10.67;;;;;;;;;;4316026;32;317852;-87
2023/11/23 06:26:20;;;;;;;26.97;12.53;;;;;;;;;;4327143;32;318801;-86
2023/11/23 06:28:48;;;;;;;30.83;19.67;;;;;;;;;;4315825;32;318858;-89
2023/11/23 06:31:17;;;;;;;28.00;17.10;;;;;;;;;;4326583;32;318723;-88
2023/11/23 06:33:45;;;;;;;26.77;14.80;;;;;;;;;;4316370;32;318913;-88
2023/11/23 06:36:13;;;;;;;20.10;13.83;;;;;;;;;;4326421;32;318854;-89
2023/11/23 06:38:40;;;;;;;27.63;13.47;;;;;;;;;;4315646;32;358602;-88
2023/11/23 06:41:18;;;;;;;20.20;14.97;;;;;;;;;;4323674;32;318662;-86
2023/11/23 06:43:47;;;;;;;35.53;20.63;;;;;;;;;;4315793;32;319232;-87
2023/11/23 06:46:15;;;;;;;30.10;18.43;;;;;;;;;;4330710;32;318899;-86
2023/11/23 06:48:44;;;;;;;35.43;19.67;;;;;;;;;;4329859;32;318311;-86
2023/11/23 06:51:12;;;;;;;38.50;17.70;;;;;;;;;;4339025;32;317662;-86
2023/11/23 06:53:43;;;;;;;30.50;18.50;;;;;;;;;;4330291;32;334042;-86
2023/11/23 06:56:12;;;;;;;45.00;19.77;;;;;;;;;;4338746;32;318538;-86
2023/11/23 06:58:41;;;;;;;40.40;19.40;;;;;;;;;;4317460;32;319120;-86
2023/11/23 07:01:11;;;;;;;24.60;16.30;;;;;;;;;;4327588;32;318914;-89
2023/11/23 07:03:39;;;;;;;28.33;14.93;;;;;;;;;;4312955;32;319081;-87
2023/11/23 07:06:07;;;;;;;24.37;14.30;;;;;;;;;;4326516;32;319077;-87
2023/11/23 07:08:35;;;;;;;32.33;15.20;;;;;;;;;;4314421;32;319231;-87
2023/11/23 07:11:04;;;;;;;27.40;14.97;;;;;;;;;;4328493;32;319060;-85
2023/11/23 07:13:32;;;;;;;27.57;15.33;;;;;;;;;;4316225;32;318632;-89
2023/11/23 07:16:01;;;;;;;23.73;14.83;;;;;;;;;;4325954;33;318690;-83
2023/11/23 07:18:30;;;;;;;16.63;10.97;;;;;;;;;;4327292;32;319091;-87
2023/11/23 07:20:58;;;;;;;20.00;11.07;;;;;;;;;;4317200;32;420959;-88
2023/11/23 07:23:26;;;;;;;14.13;10.27;;;;;;;;;;4328575;32;318423;-87
2023/11/23 07:25:54;;;;;;;14.23;10.37;;;;;;;;;;4316855;32;318795;-88
2023/11/23 07:28:24;;;;;;;12.33;6.90;;;;;;;;;;4327080;32;318953;-89
2023/11/23 07:30:53;;;;;;;14.90;7.77;;;;;;;;;;4316302;32;317851;-91
2023/11/23 07:33:21;;;;;;;12.87;6.20;;;;;;;;;;4324603;32;317423;-88
2023/11/23 07:35:51;;;;;;;11.13;6.60;;;;;;;;;;4314706;32;318008;-87
2023/11/23 07:38:18;;;;;;;4.27;3.53;;;;;;;;;;4325968;33;317963;-85
2023/11/23 07:40:46;;;;;;;9.20;5.73;;;;;;;;;;4309122;32;316935;-80
2023/11/23 07:43:14;;;;;;;24.87;16.80;;;;;;;;;;4334763;32;316600;-87
2023/11/23 07:45:41;;;;;;;8.13;6.00;;;;;;;;;;4315381;32;319036;-86
2023/11/23 07:48:11;;;;;;;11.13;7.40;;;;;;;;;;4325903;32;317063;-85
2023/11/23 07:50:40;;;;;;;11.10;5.70;;;;;;;;;;4315990;33;318034;-85
2023/11/23 07:53:09;;;;;;;11.80;5.87;;;;;;;;;;4325496;32;317596;-86
2023/11/23 07:55:37;;;;;;;6.70;5.03;;;;;;;;;;4313393;32;317927;-87
2023/11/23 07:58:04;;;;;;;9.70;7.10;;;;;;;;;;4325734;33;316790;-88
2023/11/23 08:00:31;;;;;;;13.20;7.00;;;;;;;;;;4311919;33;316815;-82
2023/11/23 08:02:59;;;;;;;4.83;4.17;;;;;;;;;;4325648;32;317671;-85
2023/11/23 08:05:26;;;;;;;7.27;4.40;;;;;;;;;;4323497;32;341501;-86
2023/11/23 08:07:54;;;;;;;9.03;4.67;;;;;;;;;;4315287;32;316835;-82
2023/11/23 08:10:25;;;;;;;6.13;4.50;;;;;;;;;;4324876;32;316714;-82
2023/11/23 08:12:53;;;;;;;5.53;4.43;;;;;;;;;;4315111;32;316942;-86
2023/11/23 08:15:21;;;;;;;4.97;3.40;;;;;;;;;;4325974;33;316457;-83
2023/11/23 08:17:48;;;;;;;9.70;4.43;;;;;;;;;;4313627;32;316847;-84
2023/11/23 08:20:16;;;;;;;4.40;3.10;;;;;;;;;;4325499;33;316832;-82
2023/11/23 08:22:43;;;;;;;4.77;4.17;;;;;;;;;;4314620;32;319055;-84
2023/11/23 08:25:12;;;;;;;9.07;7.33;;;;;;;;;;4324719;33;316765;-84
2023/11/23 08:27:41;;;;;;;9.77;6.47;;;;;;;;;;4315155;32;316817;-84
2023/11/23 08:30:12;;;;;;;28.80;9.20;;;;;;;;;;4327404;33;316899;-84
2023/11/23 08:32:40;;;;;;;12.73;8.13;;;;;;;;;;4315646;32;318007;-83
2023/11/23 08:35:09;;;;;;;22.40;10.67;;;;;;;;;;4328077;33;317930;-84
2023/11/23 08:37:36;;;;;;;9.87;6.53;;;;;;;;;;4319193;33;319133;-84
2023/11/23 08:40:06;;;;;;;4.47;3.30;;;;;;;;;;4327383;33;316847;-84
2023/11/23 08:42:34;;;;;;;5.27;3.17;;;;;;;;;;4312962;33;339691;-84
2023/11/23 08:50:55;;;;;;;7.77;5.90;;;;;;;;;;4254563;33;388735;-83
2023/11/23 08:53:26;;;;;;;19.30;12.43;;;;;;;;;;4320550;33;317413;-86
2023/11/23 08:55:55;;;;;;;19.07;14.03;;;;;;;;;;4314711;33;318880;-84
2023/11/23 08:58:23;;;;;;;17.77;13.20;;;;;;;;;;4325900;32;318952;-83
2023/11/23 09:00:52;;;;;;;9.13;6.60;;;;;;;;;;4313615;33;318962;-86
2023/11/23 09:03:21;;;;;;;9.43;6.70;;;;;;;;;;4325090;32;317197;-88
2023/11/23 09:05:53;;;;;;;7.07;5.30;;;;;;;;;;4315586;33;317059;-86
2023/11/23 09:08:20;;;;;;;6.40;4.50;;;;;;;;;;4324351;32;354563;-85
2023/11/23 09:10:48;;;;;;;6.53;4.80;;;;;;;;;;4312874;33;316888;-88
2023/11/23 09:13:16;;;;;;;4.10;3.27;;;;;;;;;;4323812;32;316815;-85
2023/11/23 09:15:43;;;;;;;2.67;2.37;;;;;;;;;;4312842;33;319618;-88
2023/11/23 09:18:18;;;;;;;3.67;2.83;;;;;;;;;;4325221;32;316857;-86
2023/11/23 09:20:47;;;;;;;4.83;2.93;;;;;;;;;;4314983;33;316586;-87
2023/11/23 09:23:15;;;;;;;4.43;3.20;;;;;;;;;;4325559;32;316992;-86
2023/11/23 09:25:42;;;;;;;3.77;2.87;;;;;;;;;;4313078;33;316807;-86
2023/11/23 09:28:10;;;;;;;2.73;2.53;;;;;;;;;;4325415;32;317001;-86
2023/11/23 09:30:38;;;;;;;3.50;2.97;;;;;;;;;;4313114;33;340350;-86
2023/11/23 09:33:09;;;;;;;22.70;15.80;;;;;;;;;;4326626;33;316815;-87
2023/11/23 09:35:39;;;;;;;25.50;16.27;;;;;;;;;;4316884;32;319047;-86
2023/11/23 09:38:07;;;;;;;4.13;3.50;;;;;;;;;;4327785;32;318840;-86
2023/11/23 09:40:35;;;;;;;5.80;4.03;;;;;;;;;;4315591;32;317050;-87
2023/11/23 09:43:02;;;;;;;4.63;3.03;;;;;;;;;;4327971;32;316935;-84
2023/11/23 09:45:31;;;;;;;4.53;2.60;;;;;;;;;;4318056;33;317127;-85
2023/11/23 09:48:00;;;;;;;8.53;5.57;;;;;;;;;;4327957;33;316918;-86
2023/11/23 09:50:28;;;;;;;5.40;4.33;;;;;;;;;;4328300;32;317064;-87
2023/11/23 09:52:59;;;;;;;5.40;2.63;;;;;;;;;;4308690;32;416094;-88
2023/11/23 09:55:27;;;;;;;2.87;2.07;;;;;;;;;;4327414;32;316589;-87
2023/11/23 09:57:55;;;;;;;2.90;2.47;;;;;;;;;;4316821;32;325302;-87
2023/11/23 10:00:22;;;;;;;4.00;2.37;;;;;;;;;;4328437;33;316898;-85
2023/11/23 10:02:55;;;;;;;3.73;2.10;;;;;;;;;;4317663;33;316865;-87
2023/11/23 10:05:24;;;;;;;7.67;4.00;;;;;;;;;;4325920;33;353448;-84
2023/11/23 10:07:53;;;;;;;7.00;4.53;;;;;;;;;;4316419;32;317002;-87
2023/11/23 10:10:22;;;;;;;19.07;10.10;;;;;;;;;;4325583;33;317024;-85
2023/11/23 10:12:49;;;;;;;9.95;6.07;;;;;;;;;;4316202;33;318846;-85
2023/11/23 10:15:18;;;;;;;8.07;4.53;;;;;;;;;;4323624;33;316932;-88
2023/11/23 10:17:45;;;;;;;8.67;5.50;;;;;;;;;;4315358;32;316832;-93
2023/11/23 10:20:15;;;;;;;5.20;4.23;;;;;;;;;;4328759;33;317183;-88
2023/11/23 10:22:44;;;;;;;3.30;2.50;;;;;;;;;;4315651;32;316612;-85
2023/11/23 10:25:27;;;;;;;3.63;2.77;;;;;;;;;;4328165;33;316932;-89
2023/11/23 10:27:58;;;;;;;5.13;3.63;;;;;;;;;;4307248;33;416232;-88
2023/11/23 10:30:25;;;;;;;6.17;4.13;;;;;;;;;;4315813;33;316890;-81
2023/11/23 10:32:54;;;;;;;6.43;3.00;;;;;;;;;;4316511;33;316742;-88
2023/11/23 10:35:23;;;;;;;3.67;2.63;;;;;;;;;;4327059;33;317158;-88
2023/11/23 10:37:54;;;;;;;3.73;2.97;;;;;;;;;;4314484;32;317089;-88
2023/11/23 10:40:24;;;;;;;8.20;3.80;;;;;;;;;;4326603;33;316967;-87
2023/11/23 10:42:53;;;;;;;6.53;5.07;;;;;;;;;;4317389;32;317122;-92
2023/11/23 10:45:24;;;;;;;6.67;4.67;;;;;;;;;;4327480;33;316927;-91
2023/11/23 10:47:55;;;;;;;5.33;3.70;;;;;;;;;;4319092;33;316925;-92
2023/11/23 10:50:22;;;;;;;7.80;3.90;;;;;;;;;;4340608;33;316481;-87
2023/11/23 10:52:50;;;;;;;37.23;20.07;;;;;;;;;;4373278;27;316175;-85
2023/11/23 10:55:17;;;;;;;31.73;18.37;;;;;;;;;;4353961;32;318792;-86
2023/11/23 10:57:48;;;;;;;18.07;10.43;;;;;;;;;;4348770;32;319015;-86
2023/11/23 11:00:23;;;;;;;6.67;4.83;;;;;;;;;;4355976;32;318927;-86
2023/11/23 11:02:52;;;;;;;5.77;4.50;;;;;;;;;;4346344;32;316961;-83
2023/11/23 11:05:28;;;;;;;5.60;3.73;;;;;;;;;;4352710;32;316875;-86
2023/11/23 11:08:01;;;;;;;5.17;4.67;;;;;;;;;;4343144;32;419093;-85
2023/11/23 11:10:29;;;;;;;4.83;3.90;;;;;;;;;;4356426;32;315685;-90
2023/11/23 11:13:12;;;;;;;2.37;2.17;;;;;;;;;;4343909;32;417154;-91
2023/11/23 11:15:52;;;;;;;3.87;2.70;;;;;;;;;;4344150;32;316975;-83
2023/11/23 11:18:22;;;;;;;6.17;3.47;;;;;;;;;;4355915;32;317143;-83
2023/11/23 11:21:01;;;;;;;7.43;4.77;;;;;;;;;;4343808;32;317156;-84
2023/11/23 11:23:37;;;;;;;5.17;3.87;;;;;;;;;;4356232;32;317336;-82
2023/11/23 11:26:11;;;;;;;4.47;3.10;;;;;;;;;;4341983;32;417168;-85
2023/11/23 11:28:39;;;;;;;6.67;3.50;;;;;;;;;;4338826;32;316873;-89
2023/11/23 11:31:14;;;;;;;3.60;2.97;;;;;;;;;;4352759;32;343327;-84
2023/11/23 11:33:42;;;;;;;4.43;2.87;;;;;;;;;;4346294;32;317109;-86
2023/11/23 11:36:13;;;;;;;5.33;3.50;;;;;;;;;;4355712;32;317053;-85
2023/11/23 11:38:40;;;;;;;8.83;5.27;;;;;;;;;;4345325;32;357593;-83
2023/11/23 11:41:10;;;;;;;6.70;4.53;;;;;;;;;;4356396;32;316833;-85
2023/11/23 11:43:39;;;;;;;9.83;5.57;;;;;;;;;;4343264;32;340904;-89
2023/11/23 11:46:07;;;;;;;8.70;5.33;;;;;;;;;;4355930;32;316606;-84
2023/11/23 11:48:35;;;;;;;10.57;5.83;;;;;;;;;;4342005;32;316906;-94
2023/11/23 11:51:04;;;;;;;7.43;5.80;;;;;;;;;;4356572;32;317605;-92
2023/11/23 11:53:32;;;;;;;16.00;5.60;;;;;;;;;;4345394;32;317711;-87
2023/11/23 11:56:00;;;;;;;8.43;5.27;;;;;;;;;;4354590;32;335612;-86
2023/11/23 11:58:30;;;;;;;7.80;4.83;;;;;;;;;;4355762;32;316930;-88
2023/11/23 12:00:57;;;;;;;11.37;5.87;;;;;;;;;;4411945;27;416057;-89
2023/11/23 12:03:26;;;;;;;12.90;5.53;;;;;;;;;;4349386;32;318425;-85
2023/11/23 12:05:53;;;;;;;13.90;6.07;;;;;;;;;;4328917;32;318615;-94
2023/11/23 12:08:20;;;;;;;11.03;6.30;;;;;;;;;;4351568;32;316517;-89
2023/11/23 12:10:47;;;;;;;10.93;6.00;;;;;;;;;;4334361;32;317906;-95
2023/11/23 12:13:24;;;;;;;8.33;4.80;;;;;;;;;;4348054;32;318501;-88
2023/11/23 12:15:52;;;;;;;8.63;5.33;;;;;;;;;;4340987;32;317409;-90
2023/11/23 12:18:31;;;;;;;9.50;5.80;;;;;;;;;;4351810;32;317296;-90
2023/11/23 12:20:58;;;;;;;10.73;6.73;;;;;;;;;;4349315;32;417891;-87
2023/11/23 12:23:26;;;;;;;13.23;9.10;;;;;;;;;;4351345;32;318161;-86
2023/11/23 12:25:54;;;;;;;16.73;10.30;;;;;;;;;;4339601;32;318858;-87
2023/11/23 12:28:22;;;;;;;9.70;6.40;;;;;;;;;;4352720;32;319420;-86
2023/11/23 12:30:48;;;;;;;12.00;7.30;;;;;;;;;;4341878;32;316694;-86
2023/11/23 12:33:16;;;;;;;7.77;5.20;;;;;;;;;;4351216;32;318277;-85
2023/11/23 12:35:45;;;;;;;9.87;6.83;;;;;;;;;;4344175;32;330055;-85
2023/11/23 12:38:12;;;;;;;13.37;5.97;;;;;;;;;;4352381;32;317390;-85
2023/11/23 12:40:39;;;;;;;12.30;5.57;;;;;;;;;;4337749;32;318471;-87
2023/11/23 12:43:06;;;;;;;6.53;5.47;;;;;;;;;;4352319;32;318279;-89
2023/11/23 12:45:35;;;;;;;7.63;5.00;;;;;;;;;;4333367;32;317485;-87
2023/11/23 12:48:03;;;;;;;9.70;5.57;;;;;;;;;;4350434;32;317097;-87
2023/11/23 12:50:30;;;;;;;12.00;5.50;;;;;;;;;;4327999;32;358533;-87
2023/11/23 12:52:58;;;;;;;7.13;5.07;;;;;;;;;;4334485;32;353952;-85
2023/11/23 12:55:25;;;;;;;10.73;5.53;;;;;;;;;;4334889;32;317774;-86
2023/11/23 12:57:54;;;;;;;12.53;6.67;;;;;;;;;;4324464;33;323778;-88
2023/11/23 13:00:21;;;;;;;9.17;5.63;;;;;;;;;;4342240;32;318722;-85
2023/11/23 13:02:48;;;;;;;19.37;6.50;;;;;;;;;;4340883;32;317246;-85
2023/11/23 13:05:17;;;;;;;8.17;5.77;;;;;;;;;;4349666;32;318519;-86
2023/11/23 13:07:45;;;;;;;8.27;5.50;;;;;;;;;;4343387;32;333502;-85
2023/11/23 13:10:16;;;;;;;9.40;5.60;;;;;;;;;;4355311;32;317856;-89
2023/11/23 13:12:43;;;;;;;13.40;6.37;;;;;;;;;;4344865;32;317528;-87
2023/11/23 13:15:13;;;;;;;11.37;5.80;;;;;;;;;;4349596;32;317990;-86
2023/11/23 13:17:40;;;;;;;9.57;6.57;;;;;;;;;;4343700;32;330061;-87
2023/11/23 13:20:10;;;;;;;9.03;6.83;;;;;;;;;;4353937;32;316879;-89
2023/11/23 13:22:40;;;;;;;11.50;6.17;;;;;;;;;;4333009;32;317291;-87
2023/11/23 13:25:11;;;;;;;8.57;4.63;;;;;;;;;;4355408;32;318243;-88
2023/11/23 13:27:40;;;;;;;7.40;4.67;;;;;;;;;;4344713;32;317915;-85
2023/11/23 13:30:08;;;;;;;7.10;5.97;;;;;;;;;;4355431;32;317206;-86
2023/11/23 13:32:36;;;;;;;12.87;6.30;;;;;;;;;;4343543;32;316930;-85
2023/11/23 13:35:04;;;;;;;10.13;6.37;;;;;;;;;;4353723;32;317659;-86
2023/11/23 13:37:33;;;;;;;9.73;6.20;;;;;;;;;;4344256;32;318225;-87
2023/11/23 13:40:00;;;;;;;11.50;8.23;;;;;;;;;;4353958;32;316637;-86
2023/11/23 13:42:26;;;;;;;11.47;6.80;;;;;;;;;;4351769;32;317481;-86
2023/11/23 13:44:55;;;;;;;10.30;7.23;;;;;;;;;;4343531;32;318207;-86
2023/11/23 13:47:23;;;;;;;12.33;7.10;;;;;;;;;;4347276;32;317639;-88
2023/11/23 13:49:50;;;;;;;8.83;5.90;;;;;;;;;;4343061;32;318326;-86
2023/11/23 13:52:17;;;;;;;10.93;7.50;;;;;;;;;;4352774;32;317509;-86
2023/11/23 13:54:45;;;;;;;9.20;6.27;;;;;;;;;;4343645;32;318355;-86
2023/11/23 13:57:14;;;;;;;11.47;5.90;;;;;;;;;;4365814;32;317250;-85
2023/11/23 13:59:41;;;;;;;8.20;6.33;;;;;;;;;;4349067;32;318141;-87
2023/11/23 14:02:10;;;;;;;8.23;5.97;;;;;;;;;;4339766;32;316448;-88
2023/11/23 14:04:37;;;;;;;12.93;6.47;;;;;;;;;;4331612;32;317764;-89
2023/11/23 14:07:05;;;;;;;9.63;6.10;;;;;;;;;;4353479;32;318452;-87
2023/11/23 14:09:32;;;;;;;7.07;5.57;;;;;;;;;;4343199;32;317470;-87
2023/11/23 14:11:59;;;;;;;6.97;5.17;;;;;;;;;;4339142;32;317593;-81
2023/11/23 14:14:29;;;;;;;10.03;5.33;;;;;;;;;;4353629;32;317064;-85
2023/11/23 14:16:55;;;;;;;8.20;6.17;;;;;;;;;;4339908;32;418484;-83
2023/11/23 14:19:25;;;;;;;14.63;6.60;;;;;;;;;;4351041;32;317647;-85
2023/11/23 14:21:52;;;;;;;11.63;6.13;;;;;;;;;;4343988;32;318097;-82
2023/11/23 14:24:20;;;;;;;7.93;4.60;;;;;;;;;;4368059;32;318478;-85
2023/11/23 14:26:48;;;;;;;9.20;6.07;;;;;;;;;;4359314;32;317090;-81
2023/11/23 14:29:15;;;;;;;8.13;7.00;;;;;;;;;;4345191;32;317286;-82
2023/11/23 14:31:43;;;;;;;12.67;7.53;;;;;;;;;;4342963;32;317340;-83
2023/11/23 14:34:10;;;;;;;13.80;6.53;;;;;;;;;;4349872;32;317847;-83
2023/11/23 14:36:40;;;;;;;7.67;6.33;;;;;;;;;;4328098;32;318788;-82